메인 페이지
METAR-TAF:

METAR-TAF

공항 :

Eagle, 콜로라도, 미국

위도: 39-39N, 경도: 106-55W, 고도: 1993m

현재 날씨관측

예보는 59분 전, 23:56시(UTC)에 발표되었습니다.
4kt
온도 4°C
습도 35%
기압 1029 hPa
시정: 16.1km
맑음

METAR: KEGE 142356Z 18004KT 10SM CLR 04/M10 A3038 RMK AO2 SLP341 T00391100 10094 21006 56013

시각: 17:55 (00:55 UTC)

예보

예보는 1 시간 35분 전, 23:20시(UTC)에 발표되었습니다.
예보 대상 시간: 15일 00시부터 15일 24시까지 (UTC)
여러 방향의 바람 4kt
시정: 10km
맑음
15일 2000시부터 (UTC)
서남서6kt
시정: 10km
맑음

TAF: KEGE 142320Z 1500/1524 VRB04KT P6SM SKC FM152000 24006KT P6SM SKC

4,000개 이상의 공항 관측 자료 및 예보 (METAR 및 TAF 보고).

지도상에서 검색 가능한 기상관측소가 노란 점과 빨간 점으로 표시되어 있습니다.

기상관측소 명을 보려면 표시 위로 마우스를 이동하세요.

날씨 관측과 예보를 보려면 클릭하세요.

지도 변경 : 확대하려면 엑스 표시가 있는 녹색 버튼, 축소하려면 빼기 표시가 있는 녹색 버튼, 다음 페이지의 지도를 보려면 녹색 화살표를 클릭하세요.


METAR-TAF: